Sunday, August 19, 2018, 5:51 PM GMT
Back to Local

CWNH, Riviere Du Loup, Que.

Location: , , Canada Lat: 47.8
Local Time: 5:51 PM GMT (17:51 GMT) Lon: -69.55
Time Zone: GMT Elev: 485 ft

Show me the last for .
Show Coded

Time T Td Feel RH Dir Speed Gust Alt SLP Vis Weather Sky Remarks
2018-08-19 17:00 67 52 - 59 350° 6 - - 30.15 0 None
2018-08-19 16:00 64 49 - 58 350° 6 - - 30.15 0 None
2018-08-19 15:00 61 49 - 65 350° 7 - - 30.16 0 None
2018-08-19 14:00 58 50 - 75 340° 5 - - 30.15 0 None
2018-08-19 13:00 57 51 - 78 350° 5 - - 30.14 0 None
2018-08-19 12:00 55 48 - 78 20° 6 - - 30.14 0 None
2018-08-19 11:00 53 50 - 89 30° 3 - - 30.12 0 None
2018-08-19 10:00 52 49 - 89 20° 5 - - 30.09 0 None
2018-08-19 09:00 53 49 - 84 50° 2 - - 30.08 0 None
2018-08-19 08:00 55 49 - 82 50° 2 - - 30.06 0 None
2018-08-19 07:00 55 50 - 81 20° 6 - - 30.05 0 None
2018-08-19 06:00 55 49 - 81 20° 6 - - 30.03 0 None
2018-08-19 05:00 56 49 - 77 50° 1 - - 30.02 0 None
2018-08-19 04:00 58 49 - 73 50° 3 - - 30.02 0 None
2018-08-19 03:00 58 50 - 76 20° 8 - - 30.01 0 None
2018-08-19 02:00 53 50 - 89 80° 1 - - 30.00 0 None
2018-08-19 01:00 56 49 - 76 70° 1 - - 29.99 0 None
2018-08-19 00:00 57 51 - 82 350° 6 - - 29.96 0 None
2018-08-18 23:00 58 53 - 83 330° 3 - - 29.95 0 None
2018-08-18 22:00 65 55 - 71 330° 5 - - 29.93 0 None
2018-08-18 21:00 64 56 - 74 330° 6 - - 29.93 0 None
2018-08-18 20:00 67 56 - 69 350° 6 - - 29.92 0 None
2018-08-18 19:00 66 56 - 69 340° 8 - - 29.92 0 None
2018-08-18 18:00 72 56 76 55 10° 10 - - 29.92 0 Peak wind: 19 mph (17 kts) from 10° at 44 min

Support USWX by starting your Amazon purchase here.